createdAt,value
2019-05-20T00:00:42.503Z,10.90
2019-05-20T00:03:11.629Z,10.97
2019-05-20T00:05:40.849Z,10.97
2019-05-20T00:08:12.435Z,12.27
2019-05-20T00:10:41.504Z,12.97
2019-05-20T00:13:10.615Z,11.77
2019-05-20T00:15:39.726Z,12.97
2019-05-20T00:18:08.911Z,11.93
2019-05-20T00:20:38.023Z,11.80
2019-05-20T00:23:07.145Z,12.90
2019-05-20T00:25:36.186Z,13.33
2019-05-20T00:28:05.258Z,12.90
2019-05-20T00:30:34.298Z,13.30
2019-05-20T00:33:03.363Z,13.10
2019-05-20T00:35:32.462Z,13.60
2019-05-20T00:38:01.594Z,12.70
2019-05-20T00:40:30.734Z,13.83
2019-05-20T00:42:59.867Z,13.30
2019-05-20T00:45:28.945Z,13.47
2019-05-20T00:47:58.064Z,13.43
2019-05-20T00:50:27.232Z,12.73
2019-05-20T00:52:56.427Z,12.93
2019-05-20T00:55:26.601Z,14.73
2019-05-20T00:57:55.674Z,14.27
2019-05-20T01:00:24.794Z,13.37
2019-05-20T01:02:56.758Z,14.27
2019-05-20T01:05:24.676Z,14.50
2019-05-20T01:07:53.796Z,13.50
2019-05-20T01:10:22.910Z,13.37
2019-05-20T01:12:52.011Z,14.03
2019-05-20T01:15:21.132Z,14.13
2019-05-20T01:17:50.241Z,15.27
2019-05-20T01:20:19.368Z,14.60
2019-05-20T01:22:48.447Z,14.53
2019-05-20T01:25:18.052Z,14.10
2019-05-20T01:27:47.164Z,15.53
2019-05-20T01:30:16.322Z,15.10
2019-05-20T01:32:45.422Z,14.97
2019-05-20T01:35:14.573Z,15.70
2019-05-20T01:37:43.791Z,17.20
2019-05-20T01:40:13.286Z,19.67
2019-05-20T01:42:42.353Z,20.90
2019-05-20T01:45:11.966Z,21.47
2019-05-20T01:47:41.065Z,22.63
2019-05-20T01:50:10.202Z,23.00
2019-05-20T01:52:39.321Z,23.47
2019-05-20T01:55:08.408Z,25.13
2019-05-20T01:57:37.458Z,27.57
2019-05-20T02:00:07.234Z,28.57
2019-05-20T02:02:36.309Z,28.30
2019-05-20T02:05:06.689Z,29.30
2019-05-20T02:07:35.957Z,29.87
2019-05-20T02:10:05.465Z,29.30
2019-05-20T02:12:34.922Z,29.63
2019-05-20T02:15:10.394Z,29.53
2019-05-20T02:17:39.515Z,30.70
2019-05-20T02:20:09.099Z,29.37
2019-05-20T02:22:38.321Z,30.83
2019-05-20T02:25:07.514Z,33.30
2019-05-20T02:27:36.959Z,31.57
2019-05-20T02:30:09.315Z,32.47
2019-05-20T02:32:38.521Z,32.70
2019-05-20T02:35:08.211Z,33.30
2019-05-20T02:37:37.364Z,35.30
2019-05-20T02:40:06.658Z,34.77
2019-05-20T02:42:35.967Z,37.67
2019-05-20T02:45:05.509Z,37.60
2019-05-20T02:47:34.773Z,39.07
2019-05-20T02:50:03.934Z,40.90
2019-05-20T02:52:33.128Z,42.57
2019-05-20T02:55:02.363Z,42.30
2019-05-20T02:57:31.539Z,42.67
2019-05-20T03:00:00.798Z,45.03
2019-05-20T03:02:30.133Z,44.97
2019-05-20T03:04:59.320Z,46.20
2019-05-20T03:07:28.459Z,45.23
2019-05-20T03:09:57.527Z,45.07
2019-05-20T03:12:26.885Z,48.17
2019-05-20T03:14:55.986Z,46.27
2019-05-20T03:17:25.146Z,49.07
2019-05-20T03:19:54.406Z,47.77
2019-05-20T03:22:23.600Z,47.27
2019-05-20T03:24:52.780Z,46.47
2019-05-20T03:27:21.991Z,46.33
2019-05-20T03:29:51.170Z,47.57
2019-05-20T03:32:20.375Z,46.73
2019-05-20T03:34:58.924Z,48.73
2019-05-20T03:37:20.712Z,48.77
2019-05-20T03:39:49.982Z,47.53
2019-05-20T03:42:19.365Z,49.03
2019-05-20T03:44:48.711Z,50.97
2019-05-20T03:47:18.017Z,48.93
2019-05-20T03:49:47.236Z,49.87
2019-05-20T03:52:16.421Z,54.67
2019-05-20T03:54:45.699Z,52.73
2019-05-20T03:57:15.038Z,52.07
2019-05-20T03:59:44.356Z,52.13
2019-05-20T04:02:13.561Z,51.03
2019-05-20T04:04:58.921Z,51.23
2019-05-20T04:07:13.711Z,49.70
2019-05-20T04:09:42.910Z,51.63
2019-05-20T04:12:12.076Z,54.43
2019-05-20T04:14:41.381Z,52.50
2019-05-20T04:17:10.505Z,51.33
2019-05-20T04:19:39.806Z,50.73
2019-05-20T04:22:09.100Z,51.03
2019-05-20T04:24:38.242Z,51.60
2019-05-20T04:27:07.373Z,51.13
2019-05-20T04:29:36.592Z,52.10
2019-05-20T04:32:05.757Z,53.20
2019-05-20T04:34:34.960Z,52.23
2019-05-20T04:37:04.175Z,53.43
2019-05-20T04:39:33.307Z,53.33
2019-05-20T04:42:06.322Z,55.73
2019-05-20T04:44:33.818Z,54.40
2019-05-20T04:47:02.976Z,56.90
2019-05-20T04:49:33.185Z,56.03
2019-05-20T04:52:02.362Z,53.97
2019-05-20T04:54:31.589Z,54.47
2019-05-20T04:57:00.758Z,56.10
2019-05-20T04:59:31.093Z,55.57
2019-05-20T05:02:00.346Z,55.47
2019-05-20T05:04:29.611Z,59.00
2019-05-20T05:06:58.897Z,58.33
2019-05-20T05:09:28.366Z,58.43
2019-05-20T05:11:57.812Z,58.90
2019-05-20T05:14:27.083Z,59.73
2019-05-20T05:16:56.309Z,63.67
2019-05-20T05:19:25.600Z,60.53
2019-05-20T05:21:54.745Z,58.20
2019-05-20T05:24:24.218Z,61.00
2019-05-20T05:26:53.436Z,60.77
2019-05-20T05:29:22.633Z,60.13
2019-05-20T05:31:51.880Z,60.53
2019-05-20T05:34:21.334Z,58.80
2019-05-20T05:36:50.611Z,60.47
2019-05-20T05:39:19.702Z,56.73
2019-05-20T05:41:56.149Z,55.83
2019-05-20T05:44:25.410Z,59.03
2019-05-20T05:46:54.562Z,58.23
2019-05-20T05:49:24.046Z,58.07
2019-05-20T05:51:53.417Z,59.10
2019-05-20T05:54:22.714Z,55.53
2019-05-20T05:56:51.877Z,56.33
2019-05-20T05:59:21.137Z,58.33
2019-05-20T06:01:53.891Z,56.17
2019-05-20T06:04:23.655Z,55.73
2019-05-20T06:07:18.036Z,53.77
2019-05-20T06:09:47.666Z,54.57
2019-05-20T06:12:22.836Z,52.63
2019-05-20T06:14:52.135Z,54.33
2019-05-20T06:17:21.293Z,54.50
2019-05-20T06:19:50.678Z,55.00
2019-05-20T06:22:20.020Z,55.30
2019-05-20T06:24:49.328Z,54.97
2019-05-20T06:27:18.482Z,55.80
2019-05-20T06:29:47.724Z,59.13
2019-05-20T06:32:17.035Z,58.00
2019-05-20T06:34:46.590Z,56.07
2019-05-20T06:37:17.678Z,56.50
2019-05-20T06:39:46.911Z,60.17
2019-05-20T06:42:16.275Z,56.77
2019-05-20T06:44:52.967Z,56.63
2019-05-20T06:47:20.253Z,56.80
2019-05-20T06:49:49.528Z,55.23
2019-05-20T06:52:34.968Z,54.57
2019-05-20T06:54:49.891Z,54.90
2019-05-20T06:57:19.093Z,54.77
2019-05-20T06:59:48.235Z,53.50
2019-05-20T07:02:17.334Z,52.73
2019-05-20T07:04:46.479Z,53.13
2019-05-20T07:07:21.059Z,53.83
2019-05-20T07:09:45.497Z,55.10
2019-05-20T07:12:14.608Z,57.23
2019-05-20T07:14:43.771Z,55.97
2019-05-20T07:17:12.833Z,58.17
2019-05-20T07:19:42.036Z,61.37
2019-05-20T07:22:11.228Z,60.37
2019-05-20T07:24:40.698Z,63.00
2019-05-20T07:27:11.044Z,61.83
2019-05-20T07:29:40.845Z,62.73
2019-05-20T07:32:10.003Z,64.27
2019-05-20T07:34:51.573Z,65.70
2019-05-20T07:37:30.582Z,62.90
2019-05-20T07:40:07.948Z,63.30
2019-05-20T07:42:37.166Z,61.73
2019-05-20T07:45:06.581Z,60.77
2019-05-20T07:47:35.635Z,60.67
2019-05-20T07:50:04.844Z,57.13
2019-05-20T07:52:33.979Z,57.57
2019-05-20T07:55:03.058Z,57.03
2019-05-20T07:57:34.988Z,56.40
2019-05-20T08:00:04.188Z,54.90
2019-05-20T08:02:33.837Z,58.33
2019-05-20T08:05:03.492Z,60.00
2019-05-20T08:07:50.496Z,58.33
2019-05-20T08:10:05.023Z,60.07
2019-05-20T08:12:34.419Z,59.20
2019-05-20T08:15:04.029Z,55.90
2019-05-20T08:17:33.753Z,56.93
2019-05-20T08:20:03.203Z,56.30
2019-05-20T08:22:32.942Z,54.27
2019-05-20T08:25:03.011Z,54.47
2019-05-20T08:27:32.276Z,52.07
2019-05-20T08:30:01.887Z,54.63
2019-05-20T08:32:32.252Z,52.10
2019-05-20T08:35:01.976Z,50.90
2019-05-20T08:37:44.784Z,49.83
2019-05-20T08:40:02.628Z,50.03
2019-05-20T08:42:31.845Z,52.27
2019-05-20T08:45:01.314Z,52.43
2019-05-20T08:47:30.786Z,51.23
2019-05-20T08:50:05.357Z,49.57
2019-05-20T08:52:33.930Z,48.53
2019-05-20T08:55:03.291Z,48.20
2019-05-20T08:57:32.576Z,45.87
2019-05-20T09:00:01.991Z,44.43
2019-05-20T09:02:31.917Z,43.20
2019-05-20T09:05:01.253Z,41.87
2019-05-20T09:07:30.542Z,40.90
2019-05-20T09:10:02.512Z,38.20
2019-05-20T09:12:31.757Z,35.53
2019-05-20T09:15:01.117Z,37.43
2019-05-20T09:17:30.416Z,36.93
2019-05-20T09:19:59.666Z,35.57
2019-05-20T09:22:28.880Z,36.77
2019-05-20T09:24:58.187Z,37.60
2019-05-20T09:27:27.372Z,37.97
2019-05-20T09:29:56.795Z,38.50
2019-05-20T09:32:26.095Z,39.43
2019-05-20T09:34:55.381Z,38.73
2019-05-20T09:37:24.490Z,39.83
2019-05-20T09:39:53.688Z,38.77
2019-05-20T09:42:22.997Z,39.17
2019-05-20T09:44:52.434Z,38.57
2019-05-20T09:47:21.731Z,36.70
2019-05-20T09:49:51.006Z,37.17
2019-05-20T09:52:20.447Z,36.67
2019-05-20T09:54:49.631Z,37.17
2019-05-20T09:57:18.813Z,39.43
2019-05-20T09:59:48.003Z,37.37
2019-05-20T10:02:17.488Z,38.37
2019-05-20T10:04:46.665Z,38.90
2019-05-20T10:07:15.851Z,36.90
2019-05-20T10:09:44.932Z,39.87
2019-05-20T10:12:14.222Z,39.27
2019-05-20T10:14:46.958Z,36.07
2019-05-20T10:17:37.424Z,34.67
2019-05-20T10:20:07.059Z,35.93
2019-05-20T10:22:39.215Z,37.17
2019-05-20T10:25:08.377Z,37.57
2019-05-20T10:27:37.475Z,43.27
2019-05-20T10:30:06.843Z,48.73
2019-05-20T10:32:36.055Z,53.17
2019-05-20T10:35:05.239Z,47.73
2019-05-20T10:37:34.549Z,46.43
2019-05-20T10:40:03.683Z,40.47
2019-05-20T10:42:32.790Z,37.77
2019-05-20T10:45:02.122Z,37.37
2019-05-20T10:47:42.933Z,37.57
2019-05-20T10:50:30.781Z,38.63
2019-05-20T10:56:30.729Z,38.97
2019-05-20T10:59:33.866Z,39.13
2019-05-20T11:02:01.009Z,35.40
2019-05-20T11:04:30.199Z,35.33
2019-05-20T11:06:59.558Z,34.53
2019-05-20T11:09:36.918Z,35.37
2019-05-20T11:15:09.619Z,36.27
2019-05-20T11:17:38.836Z,36.83
2019-05-20T11:20:11.136Z,37.93
2019-05-20T11:22:40.321Z,40.47
2019-05-20T11:25:09.684Z,43.87
2019-05-20T11:27:39.043Z,46.70
2019-05-20T11:30:11.953Z,49.13
2019-05-20T11:32:41.094Z,46.43
2019-05-20T11:35:10.244Z,43.67
2019-05-20T11:37:39.353Z,43.37
2019-05-20T11:40:09.854Z,47.67
2019-05-20T11:42:43.576Z,46.43
2019-05-20T11:45:14.799Z,45.80
2019-05-20T11:47:44.266Z,46.17
2019-05-20T11:50:14.255Z,44.73
2019-05-20T11:52:43.373Z,43.57
2019-05-20T11:55:12.467Z,42.77
2019-05-20T11:57:41.852Z,43.00
2019-05-20T12:00:11.253Z,45.77
2019-05-20T12:02:40.359Z,44.70
2019-05-20T12:05:09.621Z,45.30
2019-05-20T12:07:41.314Z,43.63
2019-05-20T12:10:11.769Z,42.23
2019-05-20T12:12:40.842Z,41.33
2019-05-20T12:15:13.092Z,42.47
2019-05-20T12:17:42.167Z,42.97
2019-05-20T12:20:12.747Z,44.43
2019-05-20T12:22:42.167Z,45.67
2019-05-20T12:25:11.200Z,46.27
2019-05-20T12:27:40.367Z,44.83
2019-05-20T12:30:09.661Z,49.07
2019-05-20T12:32:38.986Z,51.37
2019-05-20T12:35:09.105Z,47.87
2019-05-20T12:37:38.768Z,48.30
2019-05-20T12:40:18.133Z,50.03
2019-05-20T12:42:47.745Z,49.37
2019-05-20T12:45:17.662Z,46.87
2019-05-20T12:47:46.779Z,47.40
2019-05-20T12:50:16.118Z,47.53
2019-05-20T12:52:45.210Z,47.40
2019-05-20T12:55:14.563Z,46.63
2019-05-20T12:57:43.632Z,50.23
2019-05-20T13:00:12.727Z,51.60
2019-05-20T13:02:41.998Z,52.53
2019-05-20T13:05:11.537Z,50.87
2019-05-20T13:07:40.692Z,52.23
2019-05-20T13:10:26.539Z,54.53
2019-05-20T13:12:40.648Z,53.53
2019-05-20T13:15:09.795Z,53.07
2019-05-20T13:17:43.814Z,53.80
2019-05-20T13:20:09.887Z,52.93
2019-05-20T13:22:38.996Z,50.53
2019-05-20T13:25:10.999Z,52.23
2019-05-20T13:27:40.072Z,51.40
2019-05-20T13:30:09.443Z,51.97
2019-05-20T13:32:38.591Z,53.47
2019-05-20T13:35:07.734Z,51.47
2019-05-20T13:37:36.836Z,49.83
2019-05-20T13:40:06.224Z,49.80
2019-05-20T13:42:35.291Z,51.90
2019-05-20T13:45:04.442Z,50.43
2019-05-20T13:47:33.549Z,51.53
2019-05-20T13:50:02.691Z,48.47
2019-05-20T13:52:31.825Z,47.93
2019-05-20T13:55:01.034Z,46.40
2019-05-20T13:57:30.210Z,48.83
2019-05-20T13:59:59.467Z,48.83
2019-05-20T14:02:28.571Z,47.40
2019-05-20T14:04:57.686Z,47.50
2019-05-20T14:07:26.875Z,47.13
2019-05-20T14:09:56.033Z,49.63
2019-05-20T14:12:25.120Z,48.43
2019-05-20T14:14:54.226Z,48.63
2019-05-20T14:17:23.262Z,46.80
2019-05-20T14:19:52.384Z,45.67
2019-05-20T14:22:21.463Z,45.23
2019-05-20T14:24:50.866Z,45.90
2019-05-20T14:27:19.998Z,43.80
2019-05-20T14:29:49.094Z,43.13
2019-05-20T14:32:18.262Z,42.77
2019-05-20T14:34:47.463Z,42.57
2019-05-20T14:37:16.587Z,43.17
2019-05-20T14:39:45.820Z,44.27
2019-05-20T14:42:15.117Z,42.70
2019-05-20T14:44:44.340Z,39.30
2019-05-20T14:47:13.358Z,38.63
2019-05-20T14:49:42.460Z,41.50
2019-05-20T14:52:11.503Z,41.00
2019-05-20T14:54:40.555Z,41.73
2019-05-20T14:57:09.953Z,41.77
2019-05-20T14:59:39.070Z,43.77
2019-05-20T15:02:08.174Z,42.47
2019-05-20T15:04:37.318Z,42.40
2019-05-20T15:07:06.474Z,41.20
2019-05-20T15:09:35.597Z,40.77
2019-05-20T15:12:04.735Z,41.60
2019-05-20T15:14:34.106Z,41.63
2019-05-20T15:17:03.237Z,42.27
2019-05-20T15:19:32.349Z,41.53
2019-05-20T15:22:01.469Z,42.83
2019-05-20T15:24:30.641Z,40.87
2019-05-20T15:26:59.830Z,42.57
2019-05-20T15:29:29.083Z,41.27
2019-05-20T15:31:58.359Z,40.93
2019-05-20T15:34:27.451Z,41.40
2019-05-20T15:36:56.583Z,41.13
2019-05-20T15:39:26.023Z,43.50
2019-05-20T15:41:55.162Z,45.03
2019-05-20T15:44:24.181Z,45.70
2019-05-20T15:46:53.339Z,44.70
2019-05-20T15:49:23.089Z,45.77
2019-05-20T15:51:52.224Z,46.07
2019-05-20T15:54:21.521Z,44.13
2019-05-20T15:56:50.580Z,44.53
2019-05-20T15:59:19.806Z,45.50
2019-05-20T16:01:53.851Z,42.97
2019-05-20T16:04:22.571Z,43.87
2019-05-20T16:06:51.701Z,41.57
2019-05-20T16:09:20.864Z,41.83
2019-05-20T16:11:50.068Z,42.60
2019-05-20T16:14:19.382Z,38.40
2019-05-20T16:16:48.560Z,40.00
2019-05-20T16:19:17.703Z,38.90
2019-05-20T16:21:47.977Z,43.87
2019-05-20T16:24:17.918Z,39.33
2019-05-20T16:26:47.398Z,38.93
2019-05-20T16:29:16.524Z,36.70
2019-05-20T16:31:45.750Z,38.13
2019-05-20T16:34:14.906Z,39.77
2019-05-20T16:36:43.971Z,38.43
2019-05-20T16:39:13.107Z,39.80
2019-05-20T16:41:42.240Z,40.17
2019-05-20T16:44:11.387Z,39.83
2019-05-20T16:46:40.487Z,40.70
2019-05-20T16:49:09.594Z,40.10
2019-05-20T16:51:38.687Z,40.43
2019-05-20T16:54:07.819Z,38.80
2019-05-20T16:56:36.869Z,38.83
2019-05-20T16:59:05.949Z,38.23
2019-05-20T17:01:45.967Z,39.83
2019-05-20T17:04:05.903Z,40.87
2019-05-20T17:06:35.028Z,41.93
2019-05-20T17:09:04.581Z,42.53
2019-05-20T17:11:33.717Z,42.27
2019-05-20T17:14:03.066Z,41.40
2019-05-20T17:16:32.368Z,42.43
2019-05-20T17:19:01.619Z,41.80
2019-05-20T17:21:31.196Z,41.57
2019-05-20T17:24:01.597Z,40.87
2019-05-20T17:26:30.826Z,40.30
2019-05-20T17:29:00.129Z,40.03
2019-05-20T17:31:30.963Z,41.00
2019-05-20T17:34:00.190Z,41.10
2019-05-20T17:36:29.296Z,38.90
2019-05-20T17:38:58.782Z,39.50
2019-05-20T17:41:27.920Z,38.57
2019-05-20T17:43:57.089Z,40.00
2019-05-20T17:46:26.382Z,40.07
2019-05-20T17:48:55.527Z,39.73
2019-05-20T17:51:24.659Z,38.40
2019-05-20T17:53:53.799Z,38.57
2019-05-20T17:56:22.994Z,38.40
2019-05-20T17:58:52.119Z,39.27
2019-05-20T18:01:21.359Z,38.43
2019-05-20T18:06:51.489Z,37.13
2019-05-20T18:09:21.311Z,36.60
2019-05-20T18:11:53.237Z,38.17
2019-05-20T18:14:22.713Z,36.00
2019-05-20T18:16:52.189Z,36.77
2019-05-20T18:19:22.076Z,37.73
2019-05-20T18:21:51.688Z,37.00
2019-05-20T18:24:20.804Z,38.40
2019-05-20T18:26:49.971Z,37.40
2019-05-20T18:29:19.178Z,37.63
2019-05-20T18:31:48.339Z,37.70
2019-05-20T18:34:17.485Z,37.13
2019-05-20T18:36:46.714Z,36.47
2019-05-20T18:39:15.937Z,34.63
2019-05-20T18:41:46.093Z,35.57
2019-05-20T18:44:15.230Z,35.73
2019-05-20T18:46:44.461Z,35.43
2019-05-20T18:49:14.900Z,35.07
2019-05-20T18:51:44.461Z,34.47
2019-05-20T18:54:55.005Z,34.70
2019-05-20T19:00:31.295Z,34.67
2019-05-20T19:03:09.509Z,34.43
2019-05-20T19:05:38.961Z,36.30
2019-05-20T19:08:08.428Z,35.30
2019-05-20T19:10:37.925Z,35.53
2019-05-20T19:13:07.270Z,35.80
2019-05-20T19:15:36.561Z,36.40
2019-05-20T19:18:05.754Z,33.90
2019-05-20T19:20:34.952Z,32.97
2019-05-20T19:23:04.123Z,37.70
2019-05-20T19:25:37.725Z,34.80
2019-05-20T19:28:04.255Z,38.77
2019-05-20T19:30:33.604Z,35.73
2019-05-20T19:33:02.678Z,35.00
2019-05-20T19:35:31.824Z,37.00
2019-05-20T19:38:00.931Z,36.90
2019-05-20T19:40:30.016Z,36.27
2019-05-20T19:42:59.264Z,34.67
2019-05-20T19:45:28.422Z,32.63
2019-05-20T19:47:57.537Z,32.53
2019-05-20T19:50:26.717Z,33.23
2019-05-20T19:52:55.959Z,33.70
2019-05-20T19:55:25.152Z,35.30
2019-05-20T19:57:54.238Z,35.37
2019-05-20T20:00:23.387Z,34.07
2019-05-20T20:02:52.451Z,34.77
2019-05-20T20:05:21.548Z,35.70
2019-05-20T20:07:50.643Z,34.97
2019-05-20T20:10:19.875Z,35.93
2019-05-20T20:12:48.956Z,36.30
2019-05-20T20:15:19.021Z,35.10
2019-05-20T20:17:48.069Z,34.93
2019-05-20T20:20:17.168Z,36.70
2019-05-20T20:22:46.225Z,36.43
2019-05-20T20:25:15.343Z,36.50
2019-05-20T20:27:44.449Z,36.30
2019-05-20T20:30:13.550Z,36.70
2019-05-20T20:32:42.607Z,37.50
2019-05-20T20:35:11.718Z,37.90
2019-05-20T20:37:40.747Z,38.50
2019-05-20T20:40:09.819Z,39.60
2019-05-20T20:42:38.913Z,37.37
2019-05-20T20:45:08.015Z,38.27
2019-05-20T20:47:41.725Z,39.93
2019-05-20T20:50:08.004Z,40.60
2019-05-20T20:52:37.151Z,41.77
2019-05-20T20:55:06.334Z,42.70
2019-05-20T20:57:35.565Z,44.70
2019-05-20T21:00:05.435Z,44.53
2019-05-20T21:02:34.504Z,42.63
2019-05-20T21:05:03.605Z,43.70
2019-05-20T21:07:32.775Z,43.83
2019-05-20T21:10:01.862Z,44.30
2019-05-20T21:12:30.947Z,44.83
2019-05-20T21:15:00.028Z,44.73
2019-05-20T21:17:29.096Z,45.23
2019-05-20T21:19:58.252Z,44.63
2019-05-20T21:22:27.352Z,44.53
2019-05-20T21:24:56.368Z,44.03
2019-05-20T21:27:25.518Z,44.73
2019-05-20T21:29:54.608Z,46.07
2019-05-20T21:32:23.681Z,47.30
2019-05-20T21:34:52.756Z,46.87
2019-05-20T21:37:21.958Z,47.60
2019-05-20T21:39:50.978Z,49.33
2019-05-20T21:42:20.092Z,50.53
2019-05-20T21:44:49.184Z,53.03
2019-05-20T21:47:18.268Z,51.10
2019-05-20T21:49:47.460Z,50.67
2019-05-20T21:52:16.557Z,50.90
2019-05-20T21:54:45.642Z,52.73
2019-05-20T21:57:14.730Z,55.07
2019-05-20T21:59:43.829Z,50.33
2019-05-20T22:02:12.911Z,51.83
2019-05-20T22:04:41.982Z,54.20
2019-05-20T22:07:11.087Z,52.93
2019-05-20T22:09:40.141Z,59.17
2019-05-20T22:12:22.618Z,60.93
2019-05-20T22:14:52.125Z,61.63
2019-05-20T22:17:21.227Z,67.23
2019-05-20T22:19:50.311Z,64.97
2019-05-20T22:22:28.604Z,66.43
2019-05-20T22:24:57.705Z,66.37
2019-05-20T22:27:26.819Z,65.17
2019-05-20T22:29:55.845Z,61.63
2019-05-20T22:32:25.000Z,62.07
2019-05-20T22:34:54.158Z,62.23
2019-05-20T22:37:23.248Z,60.27
2019-05-20T22:39:52.326Z,61.80
2019-05-20T22:42:21.406Z,63.20
2019-05-20T22:44:50.475Z,61.40
2019-05-20T22:47:19.643Z,59.43
2019-05-20T22:49:48.731Z,58.40
2019-05-20T22:52:17.806Z,60.00
2019-05-20T22:54:46.888Z,58.87
2019-05-20T22:57:15.939Z,61.27
2019-05-20T22:59:45.061Z,63.53
2019-05-20T23:02:14.183Z,65.37
2019-05-20T23:04:44.090Z,65.23
2019-05-20T23:07:13.151Z,63.80
2019-05-20T23:09:42.326Z,62.10
2019-05-20T23:12:11.384Z,62.03
2019-05-20T23:14:40.544Z,58.97
2019-05-20T23:17:09.591Z,54.87
2019-05-20T23:19:38.692Z,48.57
2019-05-20T23:22:07.759Z,45.80
2019-05-20T23:24:36.832Z,42.03
2019-05-20T23:27:05.927Z,41.53
2019-05-20T23:29:35.020Z,41.70
2019-05-20T23:32:04.107Z,38.53
2019-05-20T23:34:33.213Z,37.80
2019-05-20T23:37:02.292Z,36.07
2019-05-20T23:39:31.385Z,33.17
2019-05-20T23:42:00.459Z,30.10
2019-05-20T23:44:29.533Z,28.17
2019-05-20T23:46:58.570Z,26.17
2019-05-20T23:49:27.659Z,24.40
2019-05-20T23:51:56.719Z,23.57
2019-05-20T23:54:25.799Z,21.43
2019-05-20T23:56:54.913Z,20.67
2019-05-20T23:59:23.989Z,20.37
